createdAt,value
2022-12-23T00:01:55.142Z,95210.22
2022-12-23T00:04:23.975Z,95207.73
2022-12-23T00:06:56.919Z,95213.25
2022-12-23T00:09:25.605Z,95222.34
2022-12-23T00:12:11.998Z,95219.38
2022-12-23T00:14:58.449Z,95216.27
2022-12-23T00:17:27.106Z,95220.70
2022-12-23T00:19:56.054Z,95230.91
2022-12-23T00:22:26.444Z,95233.09
2022-12-23T00:24:55.125Z,95236.11
2022-12-23T00:27:26.068Z,95236.01
2022-12-23T00:29:56.540Z,95224.97
2022-12-23T00:32:25.593Z,95233.92
2022-12-23T00:34:55.769Z,95231.25
2022-12-23T00:37:24.686Z,95230.02
2022-12-23T00:40:11.307Z,95234.20
2022-12-23T00:42:55.008Z,95233.84
2022-12-23T00:45:23.722Z,95221.83
2022-12-23T00:48:10.400Z,95227.92
2022-12-23T00:50:40.740Z,95222.20
2022-12-23T00:53:09.498Z,95216.03
2022-12-23T00:55:38.193Z,95210.33
2022-12-23T00:58:06.845Z,95206.39
2022-12-23T01:00:53.427Z,95208.91
2022-12-23T01:03:40.488Z,95218.77
2022-12-23T01:06:09.270Z,95228.03
2022-12-23T01:08:38.003Z,95227.92
2022-12-23T01:11:10.012Z,95236.23
2022-12-23T01:13:39.792Z,95236.59
2022-12-23T01:16:16.958Z,95222.83
2022-12-23T01:18:41.703Z,95212.30
2022-12-23T01:21:11.611Z,95218.41
2022-12-23T01:23:40.263Z,95213.58
2022-12-23T01:26:09.810Z,95205.16
2022-12-23T01:28:38.528Z,95210.11
2022-12-23T01:31:09.069Z,95218.16
2022-12-23T01:33:38.077Z,95220.23
2022-12-23T01:36:09.532Z,95216.33
2022-12-23T01:38:38.270Z,95214.50
2022-12-23T01:41:07.080Z,95212.55
2022-12-23T01:43:47.580Z,95209.75
2022-12-23T01:46:16.437Z,95204.95
2022-12-23T01:48:48.308Z,95200.35
2022-12-23T01:51:22.518Z,95205.53
2022-12-23T01:53:56.695Z,95202.44
2022-12-23T01:56:40.170Z,95191.47
2022-12-23T01:59:16.422Z,95186.98
2022-12-23T02:02:04.615Z,95171.76
2022-12-23T02:04:33.287Z,95171.12
2022-12-23T02:07:19.685Z,95169.44
2022-12-23T02:09:48.385Z,95169.28
2022-12-23T02:12:25.586Z,95171.50
2022-12-23T02:15:29.292Z,95170.91
2022-12-23T02:18:22.690Z,95160.16
2022-12-23T02:21:20.197Z,95162.55
2022-12-23T02:24:25.501Z,95156.60
2022-12-23T02:27:12.010Z,95156.81
2022-12-23T02:30:08.073Z,95153.02
2022-12-23T02:32:42.499Z,95161.23
2022-12-23T02:35:22.947Z,95158.12
2022-12-23T02:38:00.135Z,95161.69
2022-12-23T02:40:34.780Z,95155.66
2022-12-23T02:43:23.021Z,95158.28
2022-12-23T02:46:13.618Z,95157.77
2022-12-23T02:48:51.180Z,95155.12
2022-12-23T02:51:22.869Z,95154.91
2022-12-23T02:53:54.614Z,95166.26
2022-12-23T02:56:26.715Z,95159.14
2022-12-23T02:59:01.425Z,95166.31
2022-12-23T03:01:33.595Z,95172.56
2022-12-23T03:04:02.471Z,95163.31
2022-12-23T03:06:34.432Z,95161.55
2022-12-23T03:09:03.006Z,95159.89
2022-12-23T03:11:40.416Z,95167.70
2022-12-23T03:14:18.535Z,95152.80
2022-12-23T03:17:12.995Z,95156.20
2022-12-23T03:20:02.551Z,95158.14
2022-12-23T03:22:46.281Z,95156.75
2022-12-23T03:25:17.907Z,95147.33
2022-12-23T03:27:52.183Z,95153.41
2022-12-23T03:30:22.068Z,95141.28
2022-12-23T03:33:02.680Z,95141.89
2022-12-23T03:35:37.362Z,95146.92
2022-12-23T03:38:08.189Z,95154.45
2022-12-23T03:40:47.119Z,95148.42
2022-12-23T03:43:19.337Z,95146.03
2022-12-23T03:45:51.048Z,95148.66
2022-12-23T03:48:25.631Z,95156.13
2022-12-23T03:50:57.246Z,95157.61
2022-12-23T03:53:40.911Z,95163.91
2022-12-23T03:56:12.550Z,95142.52
2022-12-23T03:58:50.055Z,95162.54
2022-12-23T04:01:36.932Z,95160.59
2022-12-23T04:04:23.639Z,95150.73
2022-12-23T04:06:55.277Z,95156.52
2022-12-23T04:09:26.473Z,95147.77
2022-12-23T04:11:55.885Z,95150.22
2022-12-23T04:14:24.671Z,95150.36
2022-12-23T04:16:56.455Z,95153.22
2022-12-23T04:19:25.827Z,95160.97
2022-12-23T04:21:58.981Z,95164.80
2022-12-23T04:24:29.166Z,95166.78
2022-12-23T04:26:57.734Z,95167.84
2022-12-23T04:29:26.432Z,95157.45
2022-12-23T04:31:55.308Z,95158.52
2022-12-23T04:34:28.089Z,95157.59
2022-12-23T04:36:58.490Z,95151.88
2022-12-23T04:39:29.070Z,95148.50
2022-12-23T04:42:00.472Z,95149.77
2022-12-23T04:44:31.993Z,95151.78
2022-12-23T04:47:02.209Z,95155.13
2022-12-23T04:49:32.325Z,95147.78
2022-12-23T04:52:03.796Z,95161.37
2022-12-23T04:54:33.933Z,95157.95
2022-12-23T04:57:05.833Z,95173.73
2022-12-23T04:59:35.159Z,95163.84
2022-12-23T05:02:04.236Z,95172.50
2022-12-23T05:04:33.110Z,95171.97
2022-12-23T05:07:01.779Z,95166.84
2022-12-23T05:09:30.665Z,95179.67
2022-12-23T05:11:59.332Z,95182.09
2022-12-23T05:14:32.078Z,95182.63
2022-12-23T05:17:06.865Z,95189.81
2022-12-23T05:19:31.060Z,95187.81
2022-12-23T05:21:59.878Z,95183.87
2022-12-23T05:24:28.536Z,95187.52
2022-12-23T05:27:00.083Z,95183.37
2022-12-23T05:29:27.691Z,95192.27
2022-12-23T05:31:56.364Z,95195.96
2022-12-23T05:34:42.925Z,95199.84
2022-12-23T05:37:14.484Z,95185.28
2022-12-23T05:39:51.675Z,95184.83
2022-12-23T05:42:20.481Z,95184.19
2022-12-23T05:44:49.214Z,95180.47
2022-12-23T05:47:17.975Z,95182.78
2022-12-23T05:49:48.166Z,95191.77
2022-12-23T05:52:16.667Z,95188.33
2022-12-23T05:54:45.259Z,95184.37
2022-12-23T05:57:16.632Z,95185.13
2022-12-23T05:59:45.409Z,95188.81
2022-12-23T06:02:14.367Z,95191.92
2022-12-23T06:04:43.147Z,95183.63
2022-12-23T06:07:11.834Z,95184.02
2022-12-23T06:09:40.649Z,95181.81
2022-12-23T06:12:09.371Z,95188.39
2022-12-23T06:14:38.010Z,95193.11
2022-12-23T06:17:06.666Z,95198.39
2022-12-23T06:19:35.305Z,95190.53
2022-12-23T06:22:04.036Z,95193.88
2022-12-23T06:24:34.269Z,95197.83
2022-12-23T06:27:12.379Z,95189.52
2022-12-23T06:30:45.833Z,95197.92
2022-12-23T06:33:06.637Z,95205.69
2022-12-23T06:35:37.939Z,95199.20
2022-12-23T06:38:12.161Z,95199.34
2022-12-23T06:40:51.052Z,95203.06
2022-12-23T06:43:54.070Z,95205.17
2022-12-23T06:46:20.238Z,95207.66
2022-12-23T06:48:58.930Z,95213.18
2022-12-23T06:51:36.347Z,95209.46
2022-12-23T06:54:20.979Z,95208.86
2022-12-23T06:56:43.140Z,95210.85
2022-12-23T06:59:24.569Z,95206.68
2022-12-23T07:01:58.955Z,95184.10
2022-12-23T07:04:29.609Z,95207.80
2022-12-23T07:06:58.911Z,95206.19
2022-12-23T07:09:27.469Z,95209.19
2022-12-23T07:12:21.163Z,95212.81
2022-12-23T07:15:00.725Z,95218.08
2022-12-23T07:17:31.677Z,95225.59
2022-12-23T07:20:05.863Z,95218.34
2022-12-23T07:22:39.269Z,95222.09
2022-12-23T07:25:09.139Z,95214.48
2022-12-23T07:27:37.794Z,95216.35
2022-12-23T07:30:07.491Z,95216.30
2022-12-23T07:32:36.267Z,95212.80
2022-12-23T07:35:05.043Z,95218.89
2022-12-23T07:37:33.677Z,95213.82
2022-12-23T07:40:08.338Z,95215.19
2022-12-23T07:42:45.071Z,95217.58
2022-12-23T07:45:03.330Z,95221.35
2022-12-23T07:47:32.298Z,95219.70
2022-12-23T07:50:00.974Z,95226.38
2022-12-23T07:52:30.523Z,95235.89
2022-12-23T07:54:59.065Z,95235.89
2022-12-23T07:57:29.361Z,95235.81
2022-12-23T07:59:58.429Z,95235.48
2022-12-23T08:02:30.280Z,95237.67
2022-12-23T08:05:12.157Z,95240.14
2022-12-23T08:07:46.283Z,95240.14
2022-12-23T08:10:16.840Z,95242.73
2022-12-23T08:12:47.123Z,95237.14
2022-12-23T08:15:15.892Z,95222.56
2022-12-23T08:17:44.695Z,95233.98
2022-12-23T08:20:13.509Z,95241.05
2022-12-23T08:22:42.200Z,95243.52
2022-12-23T08:25:11.148Z,95234.06
2022-12-23T08:27:40.397Z,95255.04
2022-12-23T08:30:09.900Z,95250.67
2022-12-23T08:32:39.186Z,95239.94
2022-12-23T08:35:08.198Z,95239.94
2022-12-23T08:37:38.618Z,95245.91
2022-12-23T08:40:18.354Z,95241.50
2022-12-23T08:42:44.112Z,95241.73
2022-12-23T08:45:15.978Z,95238.41
2022-12-23T08:47:44.849Z,95245.49
2022-12-23T08:50:13.541Z,95239.75
2022-12-23T08:52:42.314Z,95237.67
2022-12-23T08:55:11.180Z,95238.44
2022-12-23T08:57:40.036Z,95240.20
2022-12-23T09:00:10.067Z,95237.77
2022-12-23T09:02:39.044Z,95230.51
2022-12-23T09:05:08.080Z,95224.12
2022-12-23T09:07:41.402Z,95228.52
2022-12-23T09:10:14.564Z,95226.97
2022-12-23T09:12:45.027Z,95227.18
2022-12-23T09:15:15.270Z,95233.51
2022-12-23T09:17:44.952Z,95232.06
2022-12-23T09:20:13.943Z,95232.48
2022-12-23T09:22:42.639Z,95220.98
2022-12-23T09:25:11.463Z,95220.53
2022-12-23T09:27:40.186Z,95227.39
2022-12-23T09:30:11.716Z,95229.92
2022-12-23T09:32:40.298Z,95225.02
2022-12-23T09:35:10.139Z,95228.46
2022-12-23T09:37:38.740Z,95229.92
2022-12-23T09:40:10.480Z,95226.52
2022-12-23T09:43:00.249Z,95226.67
2022-12-23T09:45:49.829Z,95227.65
2022-12-23T09:48:21.781Z,95222.96
2022-12-23T09:51:08.423Z,95223.56
2022-12-23T09:53:48.902Z,95222.25
2022-12-23T09:56:23.158Z,95219.57
2022-12-23T09:59:03.823Z,95213.04
2022-12-23T10:01:43.147Z,95216.84
2022-12-23T10:04:37.143Z,95214.86
2022-12-23T10:07:08.827Z,95212.06
2022-12-23T10:09:57.593Z,95204.95
2022-12-23T10:12:53.527Z,95208.05
2022-12-23T10:15:22.642Z,95212.50
2022-12-23T10:17:57.021Z,95208.94
2022-12-23T10:20:40.387Z,95212.50
2022-12-23T10:23:12.186Z,95201.95
2022-12-23T10:25:47.068Z,95200.46
2022-12-23T10:28:29.851Z,95201.80
2022-12-23T10:31:38.645Z,95188.95
2022-12-23T10:33:59.678Z,95190.27
2022-12-23T10:36:44.834Z,95186.81
2022-12-23T10:39:39.534Z,95190.52
2022-12-23T10:42:33.779Z,95182.08
2022-12-23T10:45:35.698Z,95170.81
2022-12-23T10:48:19.535Z,95178.53
2022-12-23T10:51:07.321Z,95167.22
2022-12-23T10:56:33.957Z,95165.25
2022-12-23T10:57:14.580Z,95161.39
2022-12-23T10:59:07.438Z,95165.67
2022-12-23T11:01:51.217Z,95165.19
2022-12-23T11:04:27.559Z,95167.23
2022-12-23T11:07:26.342Z,95162.59
2022-12-23T11:09:37.869Z,95154.74
2022-12-23T11:12:09.939Z,95148.47
2022-12-23T11:14:53.959Z,95150.02
2022-12-23T11:17:28.482Z,95151.89
2022-12-23T11:20:15.402Z,95145.50
2022-12-23T11:23:04.147Z,95144.20
2022-12-23T11:25:52.405Z,95143.65
2022-12-23T11:28:24.548Z,95153.58
2022-12-23T11:31:26.598Z,95157.17
2022-12-23T11:34:00.426Z,95156.04
2022-12-23T11:36:56.546Z,95152.48
2022-12-23T11:42:39.855Z,95155.34
2022-12-23T11:45:16.065Z,95157.50
2022-12-23T11:47:49.958Z,95161.98
2022-12-23T11:50:49.199Z,95160.89
2022-12-23T11:53:36.782Z,95158.91
2022-12-23T11:59:12.665Z,95149.91
2022-12-23T12:01:53.689Z,95093.86
2022-12-23T12:04:29.897Z,95141.05
2022-12-23T12:07:16.035Z,95137.23
2022-12-23T12:09:47.298Z,95133.81
2022-12-23T12:12:24.370Z,95071.03
2022-12-23T12:15:06.095Z,95134.96
2022-12-23T12:20:38.819Z,95132.38
2022-12-23T12:23:31.670Z,95129.62
2022-12-23T12:26:10.925Z,95128.64
2022-12-23T12:28:52.109Z,95122.06
2022-12-23T12:31:39.123Z,95119.62
2022-12-23T12:34:14.413Z,95115.67
2022-12-23T12:36:48.957Z,95117.01
2022-12-23T12:39:30.031Z,95117.58
2022-12-23T12:42:15.524Z,95117.78
2022-12-23T12:45:04.463Z,95118.50
2022-12-23T12:48:16.313Z,95123.74
2022-12-23T12:50:54.799Z,95123.63
2022-12-23T12:53:26.564Z,95126.49
2022-12-23T12:56:05.725Z,95123.20
2022-12-23T12:58:41.157Z,95123.47
2022-12-23T13:01:53.768Z,95127.73
2022-12-23T13:04:34.257Z,95117.63
2022-12-23T13:07:28.276Z,95117.22
2022-12-23T13:10:25.299Z,95120.26
2022-12-23T13:12:58.831Z,95120.92
2022-12-23T13:15:33.606Z,95082.36
2022-12-23T13:18:18.776Z,95111.86
2022-12-23T13:20:56.426Z,95119.11
2022-12-23T13:23:45.865Z,95118.45
2022-12-23T13:26:51.843Z,95113.13
2022-12-23T13:29:56.195Z,95111.60
2022-12-23T13:32:30.210Z,95107.34
2022-12-23T13:35:18.817Z,95113.73
2022-12-23T13:38:20.143Z,95108.71
2022-12-23T13:41:01.467Z,95107.98
2022-12-23T13:43:35.292Z,95106.73
2022-12-23T13:46:06.393Z,95107.95
2022-12-23T13:48:47.040Z,95109.00
2022-12-23T13:51:27.522Z,95111.05
2022-12-23T13:54:04.957Z,95113.79
2022-12-23T13:56:44.810Z,95112.42
2022-12-23T13:59:15.438Z,95108.80
2022-12-23T14:01:47.075Z,95110.97
2022-12-23T14:04:36.316Z,95108.75
2022-12-23T14:07:08.731Z,95107.10
2022-12-23T14:09:40.941Z,95105.31
2022-12-23T14:12:24.651Z,95110.32
2022-12-23T14:15:15.895Z,95109.66
2022-12-23T14:17:47.992Z,95109.80
2022-12-23T14:20:29.080Z,95108.19
2022-12-23T14:23:21.912Z,95112.09
2022-12-23T14:25:56.568Z,95106.02
2022-12-23T14:28:44.938Z,95110.70
2022-12-23T14:31:35.010Z,95109.67
2022-12-23T14:34:23.000Z,95107.41
2022-12-23T14:37:27.753Z,95108.59
2022-12-23T14:39:58.421Z,95115.87
2022-12-23T14:42:39.117Z,95110.27
2022-12-23T14:45:34.522Z,95111.12
2022-12-23T14:48:00.779Z,95115.61
2022-12-23T14:50:41.468Z,95116.84
2022-12-23T14:53:27.901Z,95121.39
2022-12-23T14:56:14.604Z,95127.95
2022-12-23T14:59:15.385Z,95128.23
2022-12-23T15:01:55.593Z,95128.16
2022-12-23T15:04:30.389Z,95120.19
2022-12-23T15:07:06.012Z,95125.03
2022-12-23T15:09:37.745Z,95129.58
2022-12-23T15:12:18.511Z,95124.90
2022-12-23T15:14:56.419Z,95129.77
2022-12-23T15:17:37.684Z,95132.63
2022-12-23T15:20:15.222Z,95129.36
2022-12-23T15:22:46.038Z,95132.37
2022-12-23T15:25:35.712Z,95130.55
2022-12-23T15:28:07.442Z,95137.17
2022-12-23T15:30:43.715Z,95148.84
2022-12-23T15:34:02.417Z,95144.10
2022-12-23T15:36:05.426Z,95144.73
2022-12-23T15:38:39.860Z,95151.91
2022-12-23T15:41:16.781Z,95152.53
2022-12-23T15:43:48.007Z,95147.58
2022-12-23T15:46:29.198Z,95154.02
2022-12-23T15:48:52.991Z,95155.66
2022-12-23T15:52:05.073Z,95145.37
2022-12-23T15:54:05.472Z,95151.23
2022-12-23T15:56:36.912Z,95153.69
2022-12-23T15:59:07.253Z,95165.10
2022-12-23T16:01:42.709Z,95154.97
2022-12-23T16:04:25.676Z,95158.30
2022-12-23T16:06:55.410Z,95155.77
2022-12-23T16:09:27.007Z,95147.46
2022-12-23T16:12:05.434Z,95157.76
2022-12-23T16:14:41.960Z,95158.04
2022-12-23T16:17:13.990Z,95153.44
2022-12-23T16:19:48.369Z,95148.97
2022-12-23T16:22:29.029Z,95151.52
2022-12-23T16:25:06.653Z,95148.95
2022-12-23T16:27:40.962Z,95151.86
2022-12-23T16:30:15.978Z,95160.03
2022-12-23T16:32:56.521Z,95157.88
2022-12-23T16:35:40.590Z,95161.90
2022-12-23T16:38:20.943Z,95166.44
2022-12-23T16:41:02.855Z,95161.27
2022-12-23T16:43:53.223Z,95160.95
2022-12-23T16:46:24.798Z,95167.49
2022-12-23T16:49:04.655Z,95173.89
2022-12-23T16:52:30.819Z,95172.45
2022-12-23T16:55:05.474Z,95177.86
2022-12-23T16:57:37.288Z,95173.25
2022-12-23T17:00:52.684Z,95183.82
2022-12-23T17:07:17.474Z,95190.64
2022-12-23T17:12:52.044Z,95192.84
2022-12-23T17:16:35.075Z,95192.28
2022-12-23T17:18:22.474Z,95189.52
2022-12-23T17:21:15.202Z,95193.23
2022-12-23T17:23:49.835Z,95191.47
2022-12-23T17:26:35.600Z,95195.30
2022-12-23T17:29:13.299Z,95202.44
2022-12-23T17:31:44.811Z,95202.20
2022-12-23T17:37:24.012Z,95196.89
2022-12-23T17:39:56.063Z,95197.53
2022-12-23T17:45:28.594Z,95204.57
2022-12-23T17:48:28.020Z,95203.91
2022-12-23T17:50:54.335Z,95212.35
2022-12-23T17:53:32.014Z,95211.14
2022-12-23T17:58:57.559Z,95181.34
2022-12-23T18:01:39.160Z,95212.41
2022-12-23T18:04:13.654Z,95208.97
2022-12-23T18:06:47.583Z,95208.97
2022-12-23T18:09:30.508Z,95213.98
2022-12-23T18:15:18.935Z,95224.97
2022-12-23T18:17:49.643Z,95224.97
2022-12-23T18:20:21.595Z,95213.14
2022-12-23T18:23:02.215Z,95217.20
2022-12-23T18:25:49.221Z,95216.09
2022-12-23T18:28:30.417Z,95222.43
2022-12-23T18:31:19.489Z,95228.84
2022-12-23T18:36:55.993Z,95215.44
2022-12-23T18:39:34.245Z,95219.73
2022-12-23T18:42:17.655Z,95228.59
2022-12-23T18:44:44.668Z,95228.59
2022-12-23T18:47:17.439Z,95225.85
2022-12-23T18:49:53.050Z,95232.17
2022-12-23T18:52:33.605Z,95239.17
2022-12-23T18:55:13.265Z,95234.53
2022-12-23T18:58:17.104Z,95234.53
2022-12-23T19:01:10.043Z,95232.61
2022-12-23T19:03:43.962Z,95230.25
2022-12-23T19:09:58.187Z,95211.09
2022-12-23T19:18:16.340Z,95216.03
2022-12-23T19:21:10.022Z,95217.06
2022-12-23T19:24:09.062Z,95214.25
2022-12-23T19:29:37.087Z,95204.39
2022-12-23T19:32:29.142Z,95180.78
2022-12-23T19:35:15.037Z,95211.23
2022-12-23T19:37:49.239Z,95208.34
2022-12-23T19:40:24.320Z,95209.15
2022-12-23T19:42:53.227Z,95198.82
2022-12-23T19:45:24.936Z,95206.87
2022-12-23T19:47:54.398Z,95206.84
2022-12-23T19:50:23.445Z,95200.74
2022-12-23T19:52:52.218Z,95211.81
2022-12-23T19:55:25.424Z,95209.95
2022-12-23T19:57:54.513Z,95219.27
2022-12-23T20:07:07.101Z,95226.27
2022-12-23T20:09:39.185Z,95226.20
2022-12-23T20:12:13.844Z,95227.38
2022-12-23T20:14:49.937Z,95226.52
2022-12-23T20:17:26.093Z,95230.78
2022-12-23T20:20:33.837Z,95229.94
2022-12-23T20:25:40.994Z,95227.22
2022-12-23T20:28:12.741Z,95224.45
2022-12-23T20:30:43.285Z,95226.06
2022-12-23T20:33:22.164Z,95222.81
2022-12-23T20:35:51.154Z,95231.25
2022-12-23T20:38:20.045Z,95234.81
2022-12-23T20:40:49.028Z,95229.32
2022-12-23T20:43:20.923Z,95236.37
2022-12-23T20:45:54.367Z,95236.37
2022-12-23T20:48:24.910Z,95236.22
2022-12-23T20:50:56.255Z,95230.73
2022-12-23T20:53:37.081Z,95239.17
2022-12-23T20:56:07.464Z,95250.08
2022-12-23T20:58:57.775Z,95248.46
2022-12-23T21:01:37.884Z,95243.52
2022-12-23T21:04:05.079Z,95240.56
2022-12-23T21:06:38.350Z,95245.97
2022-12-23T21:09:09.036Z,95252.17
2022-12-23T21:11:40.945Z,95242.56
2022-12-23T21:14:10.181Z,95243.11
2022-12-23T21:16:39.769Z,95243.97
2022-12-23T21:19:11.642Z,95245.83
2022-12-23T21:21:40.415Z,95246.05
2022-12-23T21:24:13.424Z,95237.39
2022-12-23T21:26:42.230Z,95241.58
2022-12-23T21:29:12.591Z,95233.44
2022-12-23T21:31:42.173Z,95236.06
2022-12-23T21:34:20.401Z,95237.52
2022-12-23T21:36:54.011Z,95236.38
2022-12-23T21:39:31.602Z,95224.70
2022-12-23T21:42:00.312Z,95232.81
2022-12-23T21:44:32.998Z,95243.46
2022-12-23T21:47:01.696Z,95237.61
2022-12-23T21:49:30.404Z,95234.66
2022-12-23T21:51:59.010Z,95222.83
2022-12-23T21:54:27.603Z,95221.75
2022-12-23T21:56:56.212Z,95208.66
2022-12-23T21:59:32.789Z,95214.78
2022-12-23T22:01:57.559Z,95218.58
2022-12-23T22:04:26.300Z,95228.59
2022-12-23T22:06:59.793Z,95232.09
2022-12-23T22:09:28.403Z,95225.42
2022-12-23T22:11:58.206Z,95217.41
2022-12-23T22:14:26.940Z,95217.03
2022-12-23T22:16:55.769Z,95213.61
2022-12-23T22:19:24.556Z,95211.74
2022-12-23T22:21:53.103Z,95205.89
2022-12-23T22:24:21.711Z,95208.84
2022-12-23T22:26:50.399Z,95207.75
2022-12-23T22:29:19.365Z,95217.81
2022-12-23T22:31:52.439Z,95221.20
2022-12-23T22:34:23.392Z,95227.77
2022-12-23T22:36:52.517Z,95222.64
2022-12-23T22:39:22.807Z,95221.06
2022-12-23T22:41:52.824Z,95219.52
2022-12-23T22:44:22.236Z,95216.30
2022-12-23T22:46:52.994Z,95212.14
2022-12-23T22:49:21.759Z,95215.44
2022-12-23T22:51:50.337Z,95223.36
2022-12-23T22:54:19.049Z,95228.38
2022-12-23T22:56:47.801Z,95229.23
2022-12-23T22:59:25.171Z,95230.14
2022-12-23T23:01:54.810Z,95221.45
2022-12-23T23:04:23.646Z,95218.06
2022-12-23T23:06:52.493Z,95222.66
2022-12-23T23:09:22.966Z,95221.72
2022-12-23T23:11:51.920Z,95216.63
2022-12-23T23:14:22.183Z,95224.08
2022-12-23T23:16:51.268Z,95218.63
2022-12-23T23:19:20.802Z,95215.67
2022-12-23T23:21:49.745Z,95214.72
2022-12-23T23:24:18.571Z,95213.20
2022-12-23T23:26:47.369Z,95208.98
2022-12-23T23:29:16.133Z,95205.33
2022-12-23T23:31:45.174Z,95207.67
2022-12-23T23:34:14.321Z,95207.01
2022-12-23T23:36:43.185Z,95205.95
2022-12-23T23:39:13.542Z,95210.00
2022-12-23T23:41:42.760Z,95216.59
2022-12-23T23:44:12.426Z,95212.30
2022-12-23T23:46:41.393Z,95212.39
2022-12-23T23:49:10.076Z,95210.52
2022-12-23T23:51:38.809Z,95205.83
2022-12-23T23:54:07.756Z,95210.78
2022-12-23T23:56:39.175Z,95204.78
2022-12-23T23:59:07.732Z,95207.28
